Time;durP1;ratioP1;P1;durP2;ratioP2;P2;SDS_P1;SDS_P2;PMS_P1;PMS_P2;Temp;Humidity;BMP_temperature;BMP_pressure;BME280_temperature;BME280_humidity;BME280_pressure;Samples;Min_cycle;Max_cycle;Signal;HPM_P1;HPM_P2
2022/03/14 00:01:57;;;;;;;46.80;42.10;;;;;;;0.53;48.18;98935.27;105768;1280;24239;-80
2022/03/14 00:04:25;;;;;;;46.30;41.50;;;;;;;0.51;48.86;98934.65;105983;1280;23939;-81
2022/03/14 00:06:53;;;;;;;47.40;42.80;;;;;;;0.51;49.34;98935.06;105963;1280;22702;-78
2022/03/14 00:09:21;;;;;;;44.00;39.50;;;;;;;0.50;48.99;98940.95;106076;1280;25427;-79
2022/03/14 00:11:51;;;;;;;48.30;43.50;;;;;;;0.51;49.19;98939.59;106024;1280;23828;-79
2022/03/14 00:14:19;;;;;;;48.30;43.60;;;;;;;0.52;49.19;98942.48;105893;1280;22758;-78
2022/03/14 00:16:47;;;;;;;48.70;43.80;;;;;;;0.52;49.16;98945.82;106496;1280;23328;-79
2022/03/14 00:19:15;;;;;;;47.20;42.70;;;;;;;0.53;49.85;98943.79;105873;1280;22578;-79
2022/03/14 00:21:45;;;;;;;47.20;42.40;;;;;;;0.51;49.58;98944.00;106020;1280;22559;-82
2022/03/14 00:24:42;;;;;;;50.10;44.80;;;;;;;0.50;49.71;98944.40;106511;1281;25461;-79
2022/03/14 00:27:09;;;;;;;49.30;44.30;;;;;;;0.48;49.64;98940.13;105748;1279;24326;-81
2022/03/14 00:29:38;;;;;;;49.20;44.30;;;;;;;0.45;49.76;98939.40;105807;1279;22628;-81
2022/03/14 00:32:06;;;;;;;49.70;45.00;;;;;;;0.42;49.63;98941.89;106289;1279;23231;-80
2022/03/14 00:34:34;;;;;;;49.10;44.00;;;;;;;0.38;49.89;98940.10;105573;1279;25320;-80
2022/03/14 00:37:03;;;;;;;49.10;44.10;;;;;;;0.36;49.91;98944.52;105956;1279;22581;-80
2022/03/14 00:39:30;;;;;;;49.90;45.00;;;;;;;0.34;49.77;98944.06;105912;1279;26754;-81
2022/03/14 00:41:58;;;;;;;48.20;43.40;;;;;;;0.32;49.80;98942.52;105908;1279;22665;-80
2022/03/14 00:44:26;;;;;;;47.10;42.60;;;;;;;0.30;49.61;98944.58;105885;1279;25504;-80
2022/03/14 00:46:55;;;;;;;47.80;43.20;;;;;;;0.29;49.93;98945.66;105583;1280;24315;-82
2022/03/14 00:49:24;;;;;;;51.20;46.10;;;;;;;0.26;49.67;98946.13;105933;1279;25419;-80
2022/03/14 00:51:51;;;;;;;48.50;43.90;;;;;;;0.24;50.08;98948.33;105914;1279;22718;-80
2022/03/14 00:54:19;;;;;;;49.30;44.40;;;;;;;0.24;49.99;98946.94;105943;1279;22563;-80
2022/03/14 00:56:47;;;;;;;52.10;46.00;;;;;;;0.23;49.97;98954.89;105879;1279;22556;-80
2022/03/14 00:59:15;;;;;;;53.30;47.90;;;;;;;0.21;49.89;98953.59;105924;1279;22547;-80
2022/03/14 01:01:43;;;;;;;54.00;48.80;;;;;;;0.17;49.89;98954.05;105944;1279;22715;-79
2022/03/14 01:04:12;;;;;;;56.80;51.10;;;;;;;0.13;49.92;98955.30;105931;1279;22693;-80
2022/03/14 01:06:40;;;;;;;51.70;46.80;;;;;;;0.10;50.01;98955.59;105940;1280;24298;-80
2022/03/14 01:09:11;;;;;;;52.80;47.80;;;;;;;0.07;50.23;98951.96;105908;1281;22543;-79
2022/03/14 01:11:39;;;;;;;52.70;47.30;;;;;;;0.03;50.20;98950.39;105943;1281;22676;-80
2022/03/14 01:14:07;;;;;;;54.40;49.20;;;;;;;-0.00;50.41;98953.24;105492;1281;25270;-79
2022/03/14 01:16:35;;;;;;;58.20;52.70;;;;;;;-0.03;50.70;98949.49;105752;1280;22580;-80
2022/03/14 01:19:11;;;;;;;55.40;50.00;;;;;;;-0.05;50.77;98954.59;105823;1281;24104;-80
2022/03/14 01:21:39;;;;;;;52.70;47.60;;;;;;;-0.07;51.09;98954.42;105911;1281;23355;-80
2022/03/14 01:24:07;;;;;;;53.60;48.40;;;;;;;-0.09;50.97;98950.51;105753;1279;188078;-79
2022/03/14 01:26:35;;;;;;;53.70;48.50;;;;;;;-0.11;50.89;98953.04;105893;1279;22706;-79
2022/03/14 01:29:04;;;;;;;53.80;48.70;;;;;;;-0.13;51.13;98956.98;105804;1280;22556;-79
2022/03/14 01:31:32;;;;;;;52.20;47.30;;;;;;;-0.14;51.37;98953.15;105710;1280;22697;-78
2022/03/14 01:34:01;;;;;;;54.10;48.40;;;;;;;-0.15;51.32;98955.02;105705;1279;22564;-78
2022/03/14 01:36:29;;;;;;;53.50;48.40;;;;;;;-0.17;51.42;98955.84;105957;1279;25418;-79
2022/03/14 01:38:58;;;;;;;50.80;45.90;;;;;;;-0.19;51.46;98955.77;105911;1279;22553;-79
2022/03/14 01:41:28;;;;;;;53.20;48.20;;;;;;;-0.20;51.19;98955.89;105661;1279;22750;-78
2022/03/14 01:43:57;;;;;;;57.40;51.90;;;;;;;-0.22;51.31;98962.09;105856;1279;22712;-78
2022/03/14 01:46:25;;;;;;;54.10;49.00;;;;;;;-0.24;51.36;98965.38;105885;1279;22705;-78
2022/03/14 01:48:53;;;;;;;54.60;49.20;;;;;;;-0.26;51.39;98967.58;105692;1279;22554;-77
2022/03/14 01:51:25;;;;;;;58.60;52.50;;;;;;;-0.28;51.40;98966.64;105837;1279;23995;-79
2022/03/14 01:53:53;;;;;;;58.40;52.70;;;;;;;-0.32;51.72;98974.17;105907;1279;22697;-79
2022/03/14 01:56:23;;;;;;;54.80;49.30;;;;;;;-0.37;51.78;98970.95;106015;1279;22784;-83
2022/03/14 01:58:53;;;;;;;55.80;50.40;;;;;;;-0.42;51.67;98972.48;105938;1279;27316;-80
2022/03/14 02:01:21;;;;;;;54.60;49.30;;;;;;;-0.45;51.78;98974.88;106087;1279;23142;-81
2022/03/14 02:03:50;;;;;;;53.70;48.40;;;;;;;-0.50;51.86;98977.10;105697;1279;22564;-80
2022/03/14 02:06:19;;;;;;;57.10;51.60;;;;;;;-0.56;51.75;98979.21;105845;1279;24594;-80
2022/03/14 02:08:47;;;;;;;62.60;56.30;;;;;;;-0.61;51.85;98981.77;105877;1279;23186;-78
2022/03/14 02:11:16;;;;;;;61.20;55.20;;;;;;;-0.69;51.91;98982.04;105851;1279;23014;-80
2022/03/14 02:13:44;;;;;;;57.70;52.30;;;;;;;-0.76;51.96;98986.98;105932;1280;25531;-80
2022/03/14 02:16:12;;;;;;;58.30;52.60;;;;;;;-0.82;52.09;98989.77;105895;1279;22618;-79
2022/03/14 02:18:40;;;;;;;61.60;55.50;;;;;;;-0.87;52.03;98992.19;105483;1280;26641;-80
2022/03/14 02:21:13;;;;;;;55.90;50.60;;;;;;;-0.94;52.04;98991.19;105890;1279;24247;-80
2022/03/14 02:23:41;;;;;;;58.70;53.20;;;;;;;-0.98;52.17;98993.73;105907;1279;24474;-80
2022/03/14 02:26:09;;;;;;;57.70;52.30;;;;;;;-1.02;52.30;98994.70;106040;1279;24251;-81
2022/03/14 02:28:37;;;;;;;54.80;49.40;;;;;;;-1.05;52.29;98993.05;105708;1280;22772;-78
2022/03/14 02:31:05;;;;;;;57.50;51.90;;;;;;;-1.08;52.33;98992.05;105690;1279;22564;-79
2022/03/14 02:33:33;;;;;;;54.20;48.90;;;;;;;-1.12;52.45;98991.30;105710;1279;22566;-78
2022/03/14 02:36:01;;;;;;;54.50;49.20;;;;;;;-1.16;52.47;98992.60;105786;1279;22577;-80
2022/03/14 02:38:29;;;;;;;55.10;49.70;;;;;;;-1.17;52.54;98995.32;105635;1279;22779;-79
2022/03/14 02:40:57;;;;;;;49.50;44.40;;;;;;;-1.16;52.40;98998.66;105707;1279;23231;-79
2022/03/14 02:43:25;;;;;;;54.50;49.30;;;;;;;-1.13;52.54;99005.91;105736;1279;22800;-79
2022/03/14 02:50:42;;;;;;;53.40;48.20;;;;;;;-1.11;52.91;99008.73;105672;1281;22577;-79
2022/03/14 02:53:12;;;;;;;55.20;49.80;;;;;;;-1.09;53.14;99010.89;105425;1279;25261;-79
2022/03/14 02:55:41;;;;;;;55.50;50.00;;;;;;;-1.10;53.12;99007.47;105952;1279;24463;-80
2022/03/14 02:58:09;;;;;;;55.80;50.40;;;;;;;-1.12;53.14;99008.08;105948;1279;25307;-79
2022/03/14 03:00:37;;;;;;;57.00;51.70;;;;;;;-1.16;53.12;99010.58;105776;1280;25359;-79
2022/03/14 03:03:11;;;;;;;55.70;50.40;;;;;;;-1.19;53.09;99010.48;105878;1280;24332;-78
2022/03/14 03:05:43;;;;;;;55.60;50.30;;;;;;;-1.23;53.30;99005.50;105495;1280;22692;-77
2022/03/14 03:08:13;;;;;;;55.50;50.00;;;;;;;-1.29;53.28;99005.75;105966;1279;25465;-79
2022/03/14 03:10:42;;;;;;;60.90;55.20;;;;;;;-1.38;53.13;99006.52;105711;1280;23663;-78
2022/03/14 03:13:11;;;;;;;59.80;54.20;;;;;;;-1.44;53.35;99010.00;105901;1279;22575;-78
2022/03/14 03:15:39;;;;;;;61.70;55.70;;;;;;;-1.49;53.49;99010.05;105944;1279;23973;-78
2022/03/14 03:18:08;;;;;;;59.50;54.00;;;;;;;-1.52;53.49;99016.50;105900;1279;24452;-79
2022/03/14 03:20:36;;;;;;;57.10;51.60;;;;;;;-1.56;53.59;99016.30;105920;1279;25450;-79
2022/03/14 03:23:06;;;;;;;57.90;52.20;;;;;;;-1.61;53.61;99020.95;105858;1279;25390;-78
2022/03/14 03:25:33;;;;;;;58.30;52.50;;;;;;;-1.66;53.84;99021.50;105681;1279;22620;-79
2022/03/14 03:28:01;;;;;;;59.50;54.00;;;;;;;-1.68;53.81;99019.40;105966;1279;22589;-78
2022/03/14 03:30:30;;;;;;;58.10;52.90;;;;;;;-1.70;53.99;99019.59;105870;1279;25261;-79
2022/03/14 03:32:58;;;;;;;61.10;55.10;;;;;;;-1.71;54.04;99020.44;105789;1279;24267;-79
2022/03/14 03:35:26;;;;;;;58.20;52.90;;;;;;;-1.74;54.09;99024.44;105889;1279;25376;-79
2022/03/14 03:37:53;;;;;;;57.10;51.70;;;;;;;-1.74;54.00;99030.66;105857;1279;22793;-79
2022/03/14 03:40:22;;;;;;;54.00;48.70;;;;;;;-1.74;54.03;99031.23;105897;1279;22566;-78
2022/03/14 03:42:50;;;;;;;54.20;48.40;;;;;;;-1.73;54.04;99036.36;105701;1280;23770;-79
2022/03/14 03:45:18;;;;;;;53.70;48.30;;;;;;;-1.69;54.09;99037.76;105893;1279;24415;-78
2022/03/14 03:47:47;;;;;;;52.80;47.50;;;;;;;-1.64;54.00;99037.16;105928;1279;24428;-76
2022/03/14 03:50:16;;;;;;;54.80;49.60;;;;;;;-1.60;54.24;99039.10;105653;1280;22637;-79
2022/03/14 03:52:44;;;;;;;55.60;50.40;;;;;;;-1.56;54.46;99036.85;105933;1279;25393;-79
2022/03/14 03:55:12;;;;;;;57.50;51.90;;;;;;;-1.53;54.51;99042.35;105887;1279;22539;-79
2022/03/14 03:57:40;;;;;;;60.20;54.30;;;;;;;-1.51;54.66;99040.70;105903;1279;22723;-79
2022/03/14 04:00:12;;;;;;;58.70;52.80;;;;;;;-1.51;54.76;99039.77;105908;1279;24784;-79
2022/03/14 04:02:42;;;;;;;58.00;52.40;;;;;;;-1.52;54.71;99043.91;105941;1279;24294;-79
2022/03/14 04:05:13;;;;;;;57.10;51.60;;;;;;;-1.53;54.75;99046.42;105905;1279;22554;-80
2022/03/14 04:07:42;;;;;;;57.60;51.60;;;;;;;-1.54;54.73;99050.92;105889;1279;22588;-77
2022/03/14 04:10:14;;;;;;;65.70;59.70;;;;;;;-1.57;54.89;99045.46;105673;1280;24365;-78
2022/03/14 04:12:44;;;;;;;68.50;62.20;;;;;;;-1.60;54.71;99047.67;105942;1279;22570;-79
2022/03/14 04:15:12;;;;;;;69.40;63.10;;;;;;;-1.63;54.84;99048.10;106023;1279;22598;-77
2022/03/14 04:17:41;;;;;;;76.50;69.30;;;;;;;-1.67;54.96;99050.31;105632;1279;26299;-77
2022/03/14 04:20:12;;;;;;;73.20;66.60;;;;;;;-1.71;54.94;99052.19;105907;1279;24453;-77
2022/03/14 04:22:40;;;;;;;69.70;63.10;;;;;;;-1.75;54.89;99054.05;105928;1279;26827;-79
2022/03/14 04:25:12;;;;;;;78.60;71.20;;;;;;;-1.80;54.96;99057.84;105832;1279;22678;-78
2022/03/14 04:27:40;;;;;;;78.40;70.50;;;;;;;-1.86;55.03;99060.51;105839;1279;23017;-78
2022/03/14 04:30:09;;;;;;;81.90;74.20;;;;;;;-1.92;55.01;99064.04;105855;1279;25342;-77
2022/03/14 04:32:37;;;;;;;67.60;61.20;;;;;;;-1.97;55.14;99067.20;105780;1279;22557;-78
2022/03/14 04:35:05;;;;;;;76.30;68.70;;;;;;;-2.08;55.01;99064.86;105552;1279;22624;-77
2022/03/14 04:37:33;;;;;;;72.40;65.40;;;;;;;-2.13;55.20;99070.54;105654;1279;22756;-76
2022/03/14 04:40:02;;;;;;;71.40;64.80;;;;;;;-2.22;55.33;99073.81;105634;1279;25426;-78
2022/03/14 04:42:30;;;;;;;75.90;68.00;;;;;;;-2.33;55.41;99074.39;105871;1279;22701;-77
2022/03/14 04:44:58;;;;;;;74.10;66.80;;;;;;;-2.41;55.45;99075.28;105634;1279;24366;-77
2022/03/14 04:47:27;;;;;;;60.70;55.00;;;;;;;-2.43;55.51;99076.44;105615;1279;22582;-77
2022/03/14 04:49:54;;;;;;;66.80;60.50;;;;;;;-2.46;55.63;99077.91;105610;1279;22562;-78
2022/03/14 04:52:23;;;;;;;71.30;64.60;;;;;;;-2.51;56.10;99078.30;105641;1279;22602;-78
2022/03/14 04:54:56;;;;;;;75.10;68.00;;;;;;;-2.54;56.41;99086.09;105871;1279;22707;-77
2022/03/14 04:57:24;;;;;;;77.10;69.40;;;;;;;-2.56;56.46;99083.84;105680;1279;25271;-78
2022/03/14 04:59:52;;;;;;;88.40;79.20;;;;;;;-2.55;56.63;99084.63;105655;1279;22546;-76
2022/03/14 05:02:22;;;;;;;95.20;84.70;;;;;;;-2.54;56.46;99085.40;105856;1279;22560;-77
2022/03/14 05:04:51;;;;;;;121.60;93.80;;;;;;;-2.54;56.46;99089.21;105525;1279;25380;-77
2022/03/14 05:07:19;;;;;;;99.10;88.40;;;;;;;-2.57;56.37;99090.77;105621;1279;23177;-77
2022/03/14 05:09:47;;;;;;;82.90;74.70;;;;;;;-2.61;56.42;99087.31;105452;1279;23150;-78
2022/03/14 05:12:15;;;;;;;78.80;71.40;;;;;;;-2.64;56.36;99092.59;105622;1279;22643;-79
2022/03/14 05:14:45;;;;;;;74.70;67.50;;;;;;;-2.67;56.42;99094.57;105664;1279;24453;-79
2022/03/14 05:17:13;;;;;;;74.30;67.20;;;;;;;-2.73;56.20;99091.66;105967;1279;25590;-78
2022/03/14 05:19:42;;;;;;;78.70;70.70;;;;;;;-2.85;56.23;99091.15;106011;1279;22699;-79
2022/03/14 05:22:10;;;;;;;82.70;74.20;;;;;;;-2.99;56.23;99093.15;105965;1279;22489;-78
2022/03/14 05:24:38;;;;;;;77.80;69.80;;;;;;;-3.06;56.78;99098.02;105960;1279;22617;-78
2022/03/14 05:27:06;;;;;;;77.40;69.30;;;;;;;-3.02;56.90;99096.52;105881;1279;22553;-78
2022/03/14 05:29:34;;;;;;;72.70;64.80;;;;;;;-2.94;56.76;99095.25;105686;1279;22665;-79
2022/03/14 05:32:03;;;;;;;83.10;68.10;;;;;;;-2.84;56.89;99095.14;105875;1280;22672;-78
2022/03/14 05:34:32;;;;;;;79.00;70.50;;;;;;;-2.76;56.99;99096.23;105674;1279;22551;-78
2022/03/14 05:37:00;;;;;;;86.60;75.70;;;;;;;-2.68;57.19;99097.41;105849;1279;25385;-79
2022/03/14 05:39:27;;;;;;;82.30;73.60;;;;;;;-2.62;57.19;99098.34;106084;1279;22653;-79
2022/03/14 05:41:56;;;;;;;81.00;72.40;;;;;;;-2.57;57.42;99100.96;105926;1279;22622;-78
2022/03/14 05:44:25;;;;;;;78.50;70.70;;;;;;;-2.50;57.39;99096.98;105853;1279;22894;-79
2022/03/14 05:46:55;;;;;;;70.30;63.40;;;;;;;-2.47;57.32;99090.25;105998;1279;22570;-78
2022/03/14 05:49:26;;;;;;;69.80;62.70;;;;;;;-2.36;57.38;99096.90;105687;1279;26543;-78
2022/03/14 05:51:54;;;;;;;69.10;62.00;;;;;;;-2.28;57.51;99102.96;105672;1280;25319;-79
2022/03/14 05:54:23;;;;;;;74.20;65.40;;;;;;;-2.19;57.58;99108.05;105904;1279;23952;-78
2022/03/14 05:56:51;;;;;;;79.70;70.30;;;;;;;-2.10;57.51;99111.29;105978;1279;24338;-80
2022/03/14 05:59:19;;;;;;;93.10;75.30;;;;;;;-2.00;57.58;99110.52;105983;1279;25385;-80
2022/03/14 06:01:48;;;;;;;94.60;77.50;;;;;;;-1.93;57.46;99114.83;106013;1279;23831;-80
2022/03/14 06:04:17;;;;;;;119.30;83.30;;;;;;;-1.84;57.55;99113.29;105799;1279;22503;-79
2022/03/14 06:06:47;;;;;;;109.70;84.10;;;;;;;-1.75;57.63;99112.59;105975;1279;22655;-80
2022/03/14 06:09:15;;;;;;;91.70;79.70;;;;;;;-1.65;57.49;99111.80;105726;1280;25369;-80
2022/03/14 06:11:43;;;;;;;79.70;71.30;;;;;;;-1.51;57.68;99110.81;105664;1279;25381;-78
2022/03/14 06:14:12;;;;;;;83.70;74.60;;;;;;;-1.35;57.79;99107.24;105912;1279;22665;-79
2022/03/14 06:16:40;;;;;;;99.00;82.80;;;;;;;-1.20;57.85;99109.02;105544;1279;22715;-78
2022/03/14 06:19:09;;;;;;;87.40;78.50;;;;;;;-1.05;57.97;99115.96;105436;1279;23955;-81
2022/03/14 06:21:39;;;;;;;88.00;78.00;;;;;;;-0.90;58.01;99115.80;105889;1279;24273;-81
2022/03/14 06:24:09;;;;;;;102.80;83.30;;;;;;;-0.76;58.06;99117.20;105523;1280;22662;-77
2022/03/14 06:26:36;;;;;;;103.90;83.00;;;;;;;-0.62;57.99;99125.36;105980;1279;22558;-80
2022/03/14 06:29:05;;;;;;;114.70;86.40;;;;;;;-0.51;57.97;99123.09;105970;1279;22567;-74
2022/03/14 06:31:34;;;;;;;90.00;79.50;;;;;;;-0.39;57.74;99124.15;105779;1279;23972;-78
2022/03/14 06:34:03;;;;;;;85.90;76.80;;;;;;;-0.32;57.61;99126.19;105744;1279;22536;-77
2022/03/14 06:36:32;;;;;;;78.50;69.90;;;;;;;-0.24;57.69;99122.35;105604;1280;24623;-79
2022/03/14 06:39:00;;;;;;;78.40;70.00;;;;;;;-0.14;57.63;99127.11;106191;1279;23393;-77
2022/03/14 06:41:35;;;;;;;71.90;64.90;;;;;;;-0.02;57.82;99127.14;105718;1280;22592;-79
2022/03/14 06:44:03;;;;;;;83.50;65.70;;;;;;;0.10;57.66;99137.36;105867;1279;22650;-76
2022/03/14 06:46:31;;;;;;;74.20;66.20;;;;;;;0.21;57.64;99138.16;105913;1279;24373;-79
2022/03/14 06:48:59;;;;;;;70.30;63.20;;;;;;;0.32;57.42;99139.92;105530;1279;22535;-78
2022/03/14 06:51:27;;;;;;;71.00;63.30;;;;;;;0.43;57.46;99139.86;105930;1279;22623;-82
2022/03/14 06:53:55;;;;;;;70.80;61.90;;;;;;;0.55;57.33;99139.34;106071;1279;25376;-86
2022/03/14 06:56:23;;;;;;;72.70;64.90;;;;;;;0.68;57.37;99139.67;105733;1282;23105;-82
2022/03/14 06:58:51;;;;;;;70.20;63.40;;;;;;;0.80;57.42;99140.70;106007;1279;23233;-81
2022/03/14 07:01:19;;;;;;;65.00;58.20;;;;;;;0.95;57.31;99140.23;105621;1279;22553;-81
2022/03/14 07:03:47;;;;;;;66.80;60.00;;;;;;;1.09;57.33;99141.28;105840;1279;22559;-81
2022/03/14 07:06:16;;;;;;;61.80;55.60;;;;;;;1.20;57.18;99144.81;105681;1280;23497;-83
2022/03/14 07:08:45;;;;;;;62.80;56.80;;;;;;;1.33;56.88;99143.15;105595;1280;22884;-80
2022/03/14 07:11:13;;;;;;;62.60;56.50;;;;;;;1.46;56.84;99148.64;105873;1279;22543;-80
2022/03/14 07:13:41;;;;;;;66.30;59.50;;;;;;;1.58;56.93;99147.98;106073;1279;22592;-80
2022/03/14 07:16:09;;;;;;;67.50;60.20;;;;;;;1.71;56.58;99149.24;106208;1279;24251;-79
2022/03/14 07:18:37;;;;;;;77.20;57.10;;;;;;;1.85;56.46;99153.36;106301;1279;23558;-81
2022/03/14 07:21:07;;;;;;;61.40;52.20;;;;;;;1.98;56.38;99156.82;106139;1280;22850;-80
2022/03/14 07:23:37;;;;;;;53.00;47.40;;;;;;;2.11;56.28;99158.30;105879;1279;25472;-79
2022/03/14 07:26:05;;;;;;;51.60;46.50;;;;;;;2.23;56.06;99158.36;105775;1279;23359;-79
2022/03/14 07:28:33;;;;;;;52.30;46.40;;;;;;;2.35;56.03;99158.25;105841;1279;22711;-79
2022/03/14 07:31:00;;;;;;;48.80;43.50;;;;;;;2.47;55.63;99155.39;105800;1279;25421;-79
2022/03/14 07:33:32;;;;;;;45.40;40.80;;;;;;;2.60;55.72;99160.33;105580;1280;23035;-78
2022/03/14 07:36:00;;;;;;;46.10;41.30;;;;;;;2.72;55.41;99156.96;105914;1280;22738;-80
2022/03/14 07:38:27;;;;;;;45.70;41.20;;;;;;;2.86;55.24;99158.30;105816;1280;23295;-79
2022/03/14 07:40:58;;;;;;;45.30;40.80;;;;;;;3.00;54.88;99159.02;105886;1279;22560;-79
2022/03/14 07:43:26;;;;;;;46.80;42.00;;;;;;;3.14;54.94;99157.95;105767;1280;25410;-79
2022/03/14 07:45:54;;;;;;;46.40;40.90;;;;;;;3.27;54.67;99163.83;105703;1279;25413;-78
2022/03/14 07:48:23;;;;;;;47.20;42.50;;;;;;;3.38;54.33;99166.62;106035;1279;22766;-80
2022/03/14 07:50:52;;;;;;;47.10;42.40;;;;;;;3.49;54.46;99171.87;105851;1279;22737;-79
2022/03/14 07:53:20;;;;;;;47.20;42.20;;;;;;;3.60;54.14;99174.53;105878;1279;25438;-80
2022/03/14 07:55:48;;;;;;;48.90;43.90;;;;;;;3.72;54.11;99173.02;106172;1279;22487;-79
2022/03/14 07:58:16;;;;;;;48.90;43.90;;;;;;;3.82;53.80;99169.20;105859;1280;22858;-79
2022/03/14 08:00:44;;;;;;;47.30;40.80;;;;;;;3.95;53.92;99168.68;106173;1279;25373;-80
2022/03/14 08:03:15;;;;;;;47.20;42.50;;;;;;;4.06;53.55;99166.61;106344;1279;25331;-79
2022/03/14 08:05:45;;;;;;;51.20;42.20;;;;;;;4.18;53.36;99168.52;105896;1279;24091;-80
2022/03/14 08:08:15;;;;;;;49.20;41.90;;;;;;;4.31;53.39;99166.84;105937;1279;22602;-79
2022/03/14 08:10:44;;;;;;;44.00;39.40;;;;;;;4.45;53.32;99166.63;106680;1280;25371;-84
2022/03/14 08:13:13;;;;;;;45.30;40.40;;;;;;;4.55;53.13;99168.33;106032;1280;23266;-79
2022/03/14 08:15:41;;;;;;;53.10;44.90;;;;;;;4.67;52.67;99168.52;105819;1279;24409;-79
2022/03/14 08:18:09;;;;;;;49.20;44.30;;;;;;;4.79;52.47;99169.27;105768;1279;23049;-79
2022/03/14 08:20:37;;;;;;;52.40;46.80;;;;;;;4.91;52.47;99168.88;105830;1279;22721;-80
2022/03/14 08:23:06;;;;;;;48.10;43.40;;;;;;;5.02;52.40;99167.70;105697;1280;25406;-80
2022/03/14 08:25:35;;;;;;;50.40;45.50;;;;;;;5.14;52.22;99171.03;105854;1280;22736;-79
2022/03/14 08:28:03;;;;;;;46.60;41.00;;;;;;;5.27;51.90;99172.39;105999;1279;22581;-80
2022/03/14 08:30:31;;;;;;;47.40;42.70;;;;;;;5.40;51.84;99171.98;105794;1279;24440;-80
2022/03/14 08:32:59;;;;;;;45.30;40.80;;;;;;;5.52;51.77;99169.98;105869;1279;25390;-79
2022/03/14 08:35:28;;;;;;;45.70;41.40;;;;;;;5.64;51.53;99173.05;105645;1279;23931;-80
2022/03/14 08:37:56;;;;;;;45.10;40.60;;;;;;;5.74;51.18;99174.37;105851;1279;25342;-80
2022/03/14 08:40:26;;;;;;;48.10;42.70;;;;;;;5.84;51.24;99175.83;105979;1279;25395;-79
2022/03/14 08:42:55;;;;;;;46.60;42.00;;;;;;;5.97;51.28;99174.54;105606;1280;22553;-79
2022/03/14 08:45:25;;;;;;;42.00;37.70;;;;;;;6.09;50.77;99169.77;106004;1279;24394;-80
2022/03/14 08:47:54;;;;;;;45.10;40.10;;;;;;;6.22;50.50;99174.08;105764;1279;24518;-80
2022/03/14 08:50:22;;;;;;;196.10;43.70;;;;;;;6.35;50.21;99172.66;105979;1279;24246;-80
2022/03/14 08:52:52;;;;;;;43.40;36.60;;;;;;;6.48;50.21;99176.36;105328;1280;23231;-81
2022/03/14 08:55:20;;;;;;;121.50;41.40;;;;;;;6.60;50.13;99180.29;105956;1279;22611;-80
2022/03/14 08:57:48;;;;;;;59.50;40.50;;;;;;;6.74;49.96;99177.73;105629;1279;22565;-81
2022/03/14 09:00:17;;;;;;;45.30;39.90;;;;;;;6.87;49.94;99175.38;105954;1279;24079;-80
2022/03/14 09:02:45;;;;;;;42.30;38.00;;;;;;;7.00;49.69;99173.50;105863;1279;25575;-79
2022/03/14 09:05:13;;;;;;;41.20;36.70;;;;;;;7.11;49.57;99171.30;105947;1279;23607;-81
2022/03/14 09:07:40;;;;;;;40.70;36.60;;;;;;;7.26;49.38;99172.67;105971;1279;25339;-78
2022/03/14 09:10:12;;;;;;;39.10;35.10;;;;;;;7.41;49.07;99180.17;105895;1279;22541;-80
2022/03/14 09:12:48;;;;;;;37.30;33.60;;;;;;;7.57;48.96;99178.89;105728;1279;25442;-79
2022/03/14 09:15:19;;;;;;;35.30;31.60;;;;;;;7.72;48.22;99177.75;105720;1279;22786;-80
2022/03/14 09:17:49;;;;;;;36.60;32.50;;;;;;;7.88;48.03;99182.98;105923;1279;22706;-79
2022/03/14 09:20:19;;;;;;;36.90;33.10;;;;;;;8.03;48.43;99183.88;105946;1279;26637;-79
2022/03/14 09:22:50;;;;;;;35.60;31.90;;;;;;;8.19;48.01;99182.83;105597;1281;22585;-80
2022/03/14 09:25:20;;;;;;;39.70;30.40;;;;;;;8.34;47.86;99187.20;105555;1281;24203;-80
2022/03/14 09:27:51;;;;;;;34.70;30.70;;;;;;;8.47;47.24;99186.66;105476;1281;25671;-80
2022/03/14 09:30:20;;;;;;;32.10;28.80;;;;;;;8.61;46.94;99185.94;105681;1281;25268;-80
2022/03/14 09:32:50;;;;;;;30.80;27.70;;;;;;;8.74;47.09;99186.11;105763;1281;25381;-80
2022/03/14 09:35:18;;;;;;;31.20;28.10;;;;;;;8.88;47.00;99180.31;105738;1281;22570;-80
2022/03/14 09:37:49;;;;;;;29.50;26.40;;;;;;;9.02;46.63;99180.48;105786;1281;22549;-79
2022/03/14 09:40:22;;;;;;;32.40;28.10;;;;;;;9.17;46.16;99181.09;105781;1281;22590;-79
2022/03/14 09:42:55;;;;;;;29.90;26.90;;;;;;;9.29;45.43;99179.71;105686;1281;22739;-80
2022/03/14 09:45:23;;;;;;;29.90;27.00;;;;;;;9.40;45.48;99177.80;105503;1282;22540;-83
2022/03/14 09:47:59;;;;;;;31.00;28.20;;;;;;;9.55;45.58;99180.03;105756;1281;23223;-80
2022/03/14 09:50:37;;;;;;;23.20;20.90;;;;;;;9.74;45.20;99184.40;105659;1282;25374;-78
2022/03/14 09:53:10;;;;;;;21.20;18.30;;;;;;;9.90;44.42;99181.61;105544;1281;25439;-80
2022/03/14 09:55:46;;;;;;;22.30;19.90;;;;;;;9.95;43.24;99183.52;105666;1281;22586;-80
2022/03/14 09:58:19;;;;;;;23.60;21.30;;;;;;;10.04;43.77;99185.27;105681;1282;22772;-80
2022/03/14 10:00:49;;;;;;;23.80;21.40;;;;;;;10.15;43.87;99183.66;105479;1282;22583;-80
2022/03/14 10:03:22;;;;;;;27.70;24.80;;;;;;;10.29;43.79;99182.97;105664;1281;22771;-78
2022/03/14 10:05:54;;;;;;;31.90;26.90;;;;;;;10.43;43.30;99183.23;105467;1281;22729;-80
2022/03/14 10:08:25;;;;;;;29.10;26.20;;;;;;;10.58;43.24;99180.28;105377;1282;22569;-80
2022/03/14 10:10:53;;;;;;;27.80;25.00;;;;;;;10.71;42.71;99179.83;105660;1281;22563;-81
2022/03/14 10:13:41;;;;;;;28.70;25.70;;;;;;;10.84;42.69;99179.13;105600;1282;22664;-80
2022/03/14 10:16:12;;;;;;;23.70;20.00;;;;;;;10.96;42.22;99180.81;105698;1281;24457;-81
2022/03/14 10:18:57;;;;;;;19.00;16.60;;;;;;;11.05;41.92;99182.27;105699;1281;23946;-81
2022/03/14 10:21:37;;;;;;;14.60;12.10;;;;;;;11.17;39.10;99186.69;105633;1282;22578;-81
2022/03/14 10:24:11;;;;;;;13.60;9.60;;;;;;;11.21;38.49;99186.73;105939;1280;22560;-82
2022/03/14 10:26:44;;;;;;;10.70;9.60;;;;;;;11.22;38.58;99185.55;105883;1279;22724;-81
2022/03/14 10:29:13;;;;;;;9.70;8.70;;;;;;;11.22;38.46;99183.50;105777;1280;25551;-80
2022/03/14 10:31:45;;;;;;;21.90;19.70;;;;;;;11.26;39.28;99177.13;105932;1279;25620;-80
2022/03/14 10:34:15;;;;;;;13.00;11.60;;;;;;;11.27;35.99;99181.06;105751;1281;25592;-81
2022/03/14 10:36:49;;;;;;;17.30;15.50;;;;;;;11.24;37.63;99179.67;106005;1279;22553;-79
2022/03/14 10:39:25;;;;;;;19.70;17.30;;;;;;;11.28;37.48;99175.77;105878;1279;22650;-79
2022/03/14 10:42:12;;;;;;;17.00;14.90;;;;;;;11.40;37.77;99173.06;105914;1279;24432;-79
2022/03/14 10:44:53;;;;;;;13.90;12.40;;;;;;;11.58;37.94;99172.05;105697;1280;24328;-79
2022/03/14 10:47:24;;;;;;;17.90;13.70;;;;;;;11.76;37.42;99174.65;105870;1279;22565;-80
2022/03/14 10:49:52;;;;;;;13.70;11.40;;;;;;;11.83;36.38;99171.39;105947;1279;22656;-81
2022/03/14 10:52:21;;;;;;;14.00;12.50;;;;;;;11.89;36.82;99167.02;105904;1280;22654;-80
2022/03/14 10:54:50;;;;;;;13.90;11.80;;;;;;;11.94;35.19;99168.34;105784;1279;25732;-80
2022/03/14 10:57:23;;;;;;;14.10;11.10;;;;;;;11.98;35.10;99165.30;105776;1279;22569;-80
2022/03/14 10:59:53;;;;;;;21.30;12.00;;;;;;;12.10;35.96;99164.81;105764;1282;22632;-80
2022/03/14 11:02:24;;;;;;;16.90;12.90;;;;;;;12.20;34.53;99165.80;105786;1281;22557;-79
2022/03/14 11:04:57;;;;;;;14.20;12.30;;;;;;;12.28;35.32;99162.52;105845;1280;22674;-81
2022/03/14 11:07:33;;;;;;;16.80;14.50;;;;;;;12.38;34.79;99157.48;105725;1280;22558;-80
2022/03/14 11:10:07;;;;;;;15.60;12.90;;;;;;;12.48;35.43;99160.23;106066;1279;22561;-79
2022/03/14 11:12:35;;;;;;;17.30;13.00;;;;;;;12.59;35.76;99153.79;106000;1279;22721;-79
2022/03/14 11:15:09;;;;;;;16.90;12.40;;;;;;;12.71;35.22;99159.98;105932;1279;25965;-77
2022/03/14 11:17:37;;;;;;;15.10;12.00;;;;;;;12.83;35.20;99157.00;105673;1280;22645;-79
2022/03/14 11:20:26;;;;;;;15.30;13.20;;;;;;;12.97;34.92;99154.90;105679;1279;22561;-78
2022/03/14 11:22:58;;;;;;;15.50;12.50;;;;;;;13.06;34.89;99157.36;105707;1281;24292;-78
2022/03/14 11:25:29;;;;;;;14.70;13.20;;;;;;;13.17;34.18;99156.34;105722;1280;22696;-80
2022/03/14 11:27:58;;;;;;;16.50;14.90;;;;;;;13.20;32.81;99150.58;105895;1279;25316;-79